createdAt,value
2018-01-23T00:00:17.241Z,101585.53
2018-01-23T00:00:41.276Z,101583.31
2018-01-23T00:01:04.663Z,101582.92
2018-01-23T00:01:28.400Z,101582.45
2018-01-23T00:01:52.140Z,101586.89
2018-01-23T00:02:16.160Z,101597.52
2018-01-23T00:02:39.917Z,101590.05
2018-01-23T00:03:03.647Z,101590.91
2018-01-23T00:03:27.608Z,101585.25
2018-01-23T00:03:51.391Z,101586.15
2018-01-23T00:04:15.180Z,101584.75
2018-01-23T00:04:38.961Z,101588.80
2018-01-23T00:05:03.029Z,101580.86
2018-01-23T00:05:26.478Z,101584.83
2018-01-23T00:05:50.216Z,101589.26
2018-01-23T00:06:13.955Z,101588.41
2018-01-23T00:06:37.422Z,101586.66
2018-01-23T00:07:01.190Z,101584.47
2018-01-23T00:07:24.919Z,101592.45
2018-01-23T00:07:48.688Z,101585.83
2018-01-23T00:08:12.635Z,101590.30
2018-01-23T00:08:36.388Z,101588.55
2018-01-23T00:09:00.113Z,101590.77
2018-01-23T00:09:23.947Z,101586.37
2018-01-23T00:09:47.822Z,101592.13
2018-01-23T00:10:11.614Z,101590.34
2018-01-23T00:10:35.626Z,101592.98
2018-01-23T00:10:59.642Z,101592.98
2018-01-23T00:11:23.661Z,101593.88
2018-01-23T00:11:47.458Z,101599.16
2018-01-23T00:12:11.047Z,101599.16
2018-01-23T00:12:34.783Z,101593.02
2018-01-23T00:12:58.512Z,101597.88
2018-01-23T00:13:22.522Z,101597.88
2018-01-23T00:13:46.545Z,101596.98
2018-01-23T00:14:10.285Z,101600.99
2018-01-23T00:14:33.745Z,101600.53
2018-01-23T00:14:57.498Z,101604.53
2018-01-23T00:15:21.265Z,101598.42
2018-01-23T00:15:44.708Z,101596.13
2018-01-23T00:16:08.432Z,101604.06
2018-01-23T00:16:32.162Z,101602.75
2018-01-23T00:16:55.932Z,101604.53
2018-01-23T00:17:19.724Z,101603.70
2018-01-23T00:17:43.450Z,101600.14
2018-01-23T00:18:07.025Z,101604.17
2018-01-23T00:18:30.758Z,101603.28
2018-01-23T00:18:54.476Z,101604.17
2018-01-23T00:19:18.217Z,101606.86
2018-01-23T00:19:42.246Z,101604.64
2018-01-23T00:20:05.978Z,101605.11
2018-01-23T00:20:29.727Z,101604.21
2018-01-23T00:20:53.451Z,101606.93
2018-01-23T00:21:16.858Z,101602.06
2018-01-23T00:21:40.625Z,101610.90
2018-01-23T00:22:04.006Z,101608.25
2018-01-23T00:22:28.020Z,101603.86
2018-01-23T00:22:51.490Z,101600.81
2018-01-23T00:23:15.232Z,101611.44
2018-01-23T00:23:38.961Z,101605.33
2018-01-23T00:24:02.988Z,101604.47
2018-01-23T00:24:26.734Z,101604.11
2018-01-23T00:24:50.513Z,101608.11
2018-01-23T00:25:14.258Z,101604.61
2018-01-23T00:25:37.995Z,101607.72
2018-01-23T00:26:02.659Z,101607.41
2018-01-23T00:26:26.563Z,101608.80
2018-01-23T00:26:50.342Z,101610.16
2018-01-23T00:27:14.068Z,101607.62
2018-01-23T00:27:37.435Z,101605.05
2018-01-23T00:28:01.155Z,101608.66
2018-01-23T00:28:24.905Z,101606.09
2018-01-23T00:28:48.648Z,101605.66
2018-01-23T00:29:12.668Z,101605.27
2018-01-23T00:29:36.687Z,101605.80
2018-01-23T00:30:00.440Z,101602.30
2018-01-23T00:30:23.900Z,101604.95
2018-01-23T00:30:47.619Z,101604.13
2018-01-23T00:31:11.347Z,101603.23
2018-01-23T00:31:35.109Z,101609.84
2018-01-23T00:31:59.018Z,101605.02
2018-01-23T00:32:22.737Z,101602.80
2018-01-23T00:32:46.483Z,101608.09
2018-01-23T00:33:09.918Z,101605.02
2018-01-23T00:33:33.653Z,101603.70
2018-01-23T00:33:57.407Z,101602.34
2018-01-23T00:34:20.863Z,101604.09
2018-01-23T00:34:44.591Z,101604.95
2018-01-23T00:35:08.352Z,101607.55
2018-01-23T00:35:31.799Z,101604.48
2018-01-23T00:35:55.577Z,101607.55
2018-01-23T00:36:19.309Z,101604.02
2018-01-23T00:36:43.042Z,101604.80
2018-01-23T00:37:06.779Z,101606.55
2018-01-23T00:37:30.524Z,101606.13
2018-01-23T00:37:54.255Z,101600.80
2018-01-23T00:38:17.998Z,101605.70
2018-01-23T00:38:41.426Z,101599.94
2018-01-23T00:39:04.470Z,101605.66
2018-01-23T00:39:28.223Z,101600.38
2018-01-23T00:39:51.599Z,101599.09
2018-01-23T00:40:15.345Z,101600.80
2018-01-23T00:40:39.084Z,101600.41
2018-01-23T00:41:02.822Z,101602.23
2018-01-23T00:41:26.547Z,101603.48
2018-01-23T00:41:50.284Z,101602.23
2018-01-23T00:42:14.011Z,101603.13
2018-01-23T00:42:37.758Z,101600.52
2018-01-23T00:43:01.192Z,101600.98
2018-01-23T00:43:24.950Z,101602.34
2018-01-23T00:43:48.698Z,101601.98
2018-01-23T00:44:12.137Z,101596.73
2018-01-23T00:44:35.860Z,101595.91
2018-01-23T00:44:59.607Z,101608.73
2018-01-23T00:45:23.074Z,101599.55
2018-01-23T00:45:46.810Z,101602.70
2018-01-23T00:46:10.557Z,101608.02
2018-01-23T00:46:34.002Z,101600.16
2018-01-23T00:46:57.777Z,101610.81
2018-01-23T00:47:21.509Z,101605.55
2018-01-23T00:47:45.562Z,101606.09
2018-01-23T00:48:09.611Z,101606.98
2018-01-23T00:48:33.057Z,101611.41
2018-01-23T00:48:56.814Z,101607.91
2018-01-23T00:49:20.536Z,101614.52
2018-01-23T00:49:44.282Z,101610.59
2018-01-23T00:50:08.004Z,101608.80
2018-01-23T00:50:31.785Z,101621.59
2018-01-23T00:50:55.530Z,101615.41
2018-01-23T00:51:19.274Z,101616.27
2018-01-23T00:51:43.297Z,101609.63
2018-01-23T00:52:07.630Z,101620.63
2018-01-23T00:52:31.373Z,101617.98
2018-01-23T00:52:55.110Z,101614.38
2018-01-23T00:53:18.550Z,101611.70
2018-01-23T00:53:42.290Z,101615.63
2018-01-23T00:54:06.052Z,101616.91
2018-01-23T00:54:29.496Z,101615.06
2018-01-23T00:54:53.239Z,101616.37
2018-01-23T00:55:16.992Z,101622.06
2018-01-23T00:55:41.044Z,101617.63
2018-01-23T00:56:05.076Z,101620.23
2018-01-23T00:56:29.123Z,101624.14
2018-01-23T00:56:52.856Z,101622.34
2018-01-23T00:57:16.308Z,101623.20
2018-01-23T00:57:40.046Z,101629.81
2018-01-23T00:58:03.792Z,101628.03
2018-01-23T00:58:27.515Z,101626.59
2018-01-23T00:58:51.255Z,101626.59
2018-01-23T00:59:14.992Z,101627.89
2018-01-23T00:59:38.748Z,101627.89
2018-01-23T01:00:02.194Z,101620.34
2018-01-23T01:00:25.625Z,101626.49
2018-01-23T01:00:49.386Z,101623.78
2018-01-23T01:01:13.114Z,101616.70
2018-01-23T01:01:36.892Z,101620.63
2018-01-23T01:02:00.649Z,101628.53
2018-01-23T01:02:24.795Z,101624.09
2018-01-23T01:02:48.360Z,101625.34
2018-01-23T01:03:12.087Z,101630.60
2018-01-23T01:03:35.841Z,101630.60
2018-01-23T01:03:59.585Z,101630.09
2018-01-23T01:04:23.599Z,101624.81
2018-01-23T01:04:47.623Z,101626.92
2018-01-23T01:05:11.645Z,101626.92
2018-01-23T01:05:35.411Z,101624.23
2018-01-23T01:05:58.870Z,101623.34
2018-01-23T01:06:22.598Z,101628.59
2018-01-23T01:06:46.357Z,101625.52
2018-01-23T01:07:09.797Z,101626.38
2018-01-23T01:07:33.600Z,101624.59
2018-01-23T01:07:57.338Z,101627.17
2018-01-23T01:08:21.382Z,101626.70
2018-01-23T01:08:45.396Z,101628.92
2018-01-23T01:09:09.427Z,101629.34
2018-01-23T01:09:33.170Z,101624.95
2018-01-23T01:09:56.943Z,101625.84
2018-01-23T01:10:20.682Z,101624.48
2018-01-23T01:10:44.418Z,101628.03
2018-01-23T01:11:08.182Z,101625.45
2018-01-23T01:11:32.188Z,101632.89
2018-01-23T01:11:56.222Z,101626.34
2018-01-23T01:12:20.229Z,101625.45
2018-01-23T01:12:43.984Z,101627.23
2018-01-23T01:13:07.390Z,101629.88
2018-01-23T01:13:31.128Z,101627.70
2018-01-23T01:13:55.152Z,101624.62
2018-01-23T01:14:18.935Z,101627.27
2018-01-23T01:14:42.399Z,101623.34
2018-01-23T01:15:06.122Z,101630.81
2018-01-23T01:15:29.863Z,101626.88
2018-01-23T01:15:53.304Z,101629.95
2018-01-23T01:16:17.049Z,101629.53
2018-01-23T01:16:40.982Z,101632.17
2018-01-23T01:17:04.739Z,101624.27
2018-01-23T01:17:28.359Z,101630.48
2018-01-23T01:17:52.118Z,101630.95
2018-01-23T01:18:15.843Z,101630.09
2018-01-23T01:18:39.866Z,101625.28
2018-01-23T01:19:03.402Z,101629.74
2018-01-23T01:19:27.141Z,101633.78
2018-01-23T01:19:50.880Z,101630.28
2018-01-23T01:20:14.610Z,101630.78
2018-01-23T01:20:38.642Z,101632.53
2018-01-23T01:21:02.681Z,101625.53
2018-01-23T01:21:26.743Z,101629.99
2018-01-23T01:21:50.478Z,101641.03
2018-01-23T01:22:13.926Z,101624.27
2018-01-23T01:22:37.666Z,101628.28
2018-01-23T01:23:01.431Z,101630.45
2018-01-23T01:23:24.863Z,101628.67
2018-01-23T01:23:48.591Z,101633.46
2018-01-23T01:24:12.328Z,101638.28
2018-01-23T01:24:36.063Z,101638.28
2018-01-23T01:24:59.792Z,101635.61
2018-01-23T01:25:23.549Z,101634.25
2018-01-23T01:25:47.289Z,101640.86
2018-01-23T01:26:10.728Z,101637.75
2018-01-23T01:26:34.474Z,101640.28
2018-01-23T01:26:58.253Z,101637.61
2018-01-23T01:27:22.270Z,101639.82
2018-01-23T01:27:46.300Z,101636.75
2018-01-23T01:28:10.347Z,101643.28
2018-01-23T01:28:34.125Z,101638.82
2018-01-23T01:28:57.575Z,101639.25
2018-01-23T01:29:21.307Z,101636.14
2018-01-23T01:29:45.044Z,101645.83
2018-01-23T01:30:08.171Z,101643.14
2018-01-23T01:30:32.224Z,101640.92
2018-01-23T01:30:55.993Z,101647.97
2018-01-23T01:31:19.249Z,101640.92
2018-01-23T01:31:43.017Z,101640.00
2018-01-23T01:32:07.047Z,101642.64
2018-01-23T01:32:31.059Z,101638.17
2018-01-23T01:32:55.082Z,101639.92
2018-01-23T01:33:18.833Z,101637.28
2018-01-23T01:33:42.272Z,101643.00
2018-01-23T01:34:05.989Z,101647.83
2018-01-23T01:34:29.459Z,101640.32
2018-01-23T01:34:53.218Z,101646.93
2018-01-23T01:35:16.958Z,101641.64
2018-01-23T01:35:40.694Z,101645.14
2018-01-23T01:36:04.466Z,101642.92
2018-01-23T01:36:28.208Z,101643.36
2018-01-23T01:36:51.971Z,101646.00
2018-01-23T01:37:15.706Z,101643.72
2018-01-23T01:37:39.740Z,101650.29
2018-01-23T01:38:03.764Z,101648.54
2018-01-23T01:38:27.511Z,101647.22
2018-01-23T01:38:51.231Z,101652.05
2018-01-23T01:39:14.974Z,101648.08
2018-01-23T01:39:38.712Z,101648.54
2018-01-23T01:40:02.475Z,101648.97
2018-01-23T01:40:25.941Z,101651.61
2018-01-23T01:40:49.726Z,101651.19
2018-01-23T01:41:13.463Z,101650.76
2018-01-23T01:41:37.491Z,101654.69
2018-01-23T01:42:01.527Z,101653.41
2018-01-23T01:42:25.295Z,101653.41
2018-01-23T01:42:48.739Z,101652.97
2018-01-23T01:43:12.480Z,101657.01
2018-01-23T01:43:36.244Z,101659.66
2018-01-23T01:43:59.708Z,101662.30
2018-01-23T01:44:23.457Z,101655.72
2018-01-23T01:44:47.198Z,101658.84
2018-01-23T01:45:10.635Z,101657.52
2018-01-23T01:45:34.379Z,101659.73
2018-01-23T01:45:58.137Z,101662.41
2018-01-23T01:46:22.184Z,101657.19
2018-01-23T01:46:46.234Z,101656.33
2018-01-23T01:47:09.996Z,101659.44
2018-01-23T01:47:33.733Z,101657.23
2018-01-23T01:47:57.479Z,101663.91
2018-01-23T01:48:21.235Z,101664.37
2018-01-23T01:48:53.194Z,101658.19
2018-01-23T01:49:16.955Z,101656.51
2018-01-23T01:49:41.023Z,101664.88
2018-01-23T01:50:05.061Z,101661.88
2018-01-23T01:50:28.824Z,101665.38
2018-01-23T01:50:52.267Z,101666.30
2018-01-23T01:51:16.000Z,101667.16
2018-01-23T01:51:39.769Z,101677.73
2018-01-23T01:52:03.218Z,101664.98
2018-01-23T01:52:27.019Z,101668.52
2018-01-23T01:52:50.775Z,101664.52
2018-01-23T01:53:14.805Z,101671.55
2018-01-23T01:53:38.832Z,101666.70
2018-01-23T01:54:02.283Z,101671.98
2018-01-23T01:54:26.015Z,101667.55
2018-01-23T01:54:49.750Z,101669.30
2018-01-23T01:55:13.771Z,101667.52
2018-01-23T01:55:37.519Z,101677.59
2018-01-23T01:56:01.315Z,101665.70
2018-01-23T01:56:25.059Z,101663.91
2018-01-23T01:56:48.810Z,101670.95
2018-01-23T01:57:12.547Z,101674.02
2018-01-23T01:57:36.599Z,101666.09
2018-01-23T01:58:00.624Z,101668.27
2018-01-23T01:58:24.372Z,101665.59
2018-01-23T01:58:48.099Z,101669.98
2018-01-23T01:59:11.828Z,101667.27
2018-01-23T01:59:35.563Z,101679.60
2018-01-23T01:59:59.324Z,101668.59
2018-01-23T02:00:22.756Z,101676.48
2018-01-23T02:00:46.484Z,101678.24
2018-01-23T02:01:10.253Z,101678.20
2018-01-23T02:01:33.704Z,101677.34
2018-01-23T02:01:57.552Z,101675.56
2018-01-23T02:02:21.304Z,101682.17
2018-01-23T02:02:45.370Z,101678.20
2018-01-23T02:03:09.151Z,101682.60
2018-01-23T02:03:32.597Z,101682.56
2018-01-23T02:03:56.330Z,101686.93
2018-01-23T02:04:20.092Z,101682.96
2018-01-23T02:04:43.541Z,101690.90
2018-01-23T02:05:07.296Z,101686.93
2018-01-23T02:05:31.051Z,101683.82
2018-01-23T02:05:55.059Z,101684.72
2018-01-23T02:06:19.076Z,101686.00
2018-01-23T02:06:43.119Z,101689.54
2018-01-23T02:07:06.863Z,101695.66
2018-01-23T02:07:30.599Z,101691.25
2018-01-23T02:07:54.371Z,101677.99
2018-01-23T02:08:18.104Z,101692.54
2018-01-23T02:08:41.867Z,101684.97
2018-01-23T02:09:05.220Z,101687.18
2018-01-23T02:09:29.015Z,101693.76
2018-01-23T02:09:52.763Z,101695.51
2018-01-23T02:10:16.221Z,101695.05
2018-01-23T02:10:39.975Z,101692.83
2018-01-23T02:11:03.771Z,101692.83
2018-01-23T02:11:27.659Z,101697.22
2018-01-23T02:11:51.678Z,101695.91
2018-01-23T02:12:15.696Z,101694.58
2018-01-23T02:12:39.727Z,101698.55
2018-01-23T02:13:03.189Z,101697.22
2018-01-23T02:13:26.947Z,101696.33
2018-01-23T02:13:50.675Z,101695.91
2018-01-23T02:14:14.417Z,101698.97
2018-01-23T02:14:38.156Z,101702.48
2018-01-23T02:15:01.931Z,101697.22
2018-01-23T02:15:25.659Z,101698.97
2018-01-23T02:15:49.550Z,101708.23
2018-01-23T02:16:13.304Z,101697.22
2018-01-23T02:16:36.763Z,101693.26
2018-01-23T02:17:00.494Z,101698.08
2018-01-23T02:17:24.260Z,101701.63
2018-01-23T02:17:47.747Z,101702.09
2018-01-23T02:18:11.526Z,101700.73
2018-01-23T02:18:35.274Z,101700.73
2018-01-23T02:18:59.283Z,101701.19
2018-01-23T02:19:23.314Z,101698.55
2018-01-23T02:19:47.323Z,101701.66
2018-01-23T02:20:10.742Z,101699.44
2018-01-23T02:20:34.142Z,101705.63
2018-01-23T02:20:57.475Z,101702.09
2018-01-23T02:21:20.880Z,101705.63
2018-01-23T02:21:44.646Z,101705.20
2018-01-23T02:22:08.257Z,101702.13
2018-01-23T02:22:32.039Z,101707.41
2018-01-23T02:22:56.075Z,101706.52
2018-01-23T02:23:20.111Z,101708.30
2018-01-23T02:23:43.865Z,101705.66
2018-01-23T02:24:07.244Z,101703.88
2018-01-23T02:24:31.000Z,101704.34
2018-01-23T02:24:55.064Z,101705.20
2018-01-23T02:25:18.836Z,101707.45
2018-01-23T02:25:42.293Z,101698.69
2018-01-23T02:26:06.019Z,101704.37
2018-01-23T02:26:29.752Z,101706.62
2018-01-23T02:26:53.225Z,101707.45
2018-01-23T02:27:17.007Z,101706.62
2018-01-23T02:27:40.743Z,101706.19
2018-01-23T02:28:04.791Z,101707.52
2018-01-23T02:28:28.842Z,101704.87
2018-01-23T02:28:52.601Z,101704.87
2018-01-23T02:29:16.345Z,101708.41
2018-01-23T02:29:40.104Z,101704.45
2018-01-23T02:30:03.485Z,101704.91
2018-01-23T02:30:27.223Z,101707.98
2018-01-23T02:30:50.985Z,101702.73
2018-01-23T02:31:14.734Z,101705.38
2018-01-23T02:31:38.481Z,101706.27
2018-01-23T02:32:01.989Z,101708.95
2018-01-23T02:32:25.924Z,101707.59
2018-01-23T02:32:49.699Z,101705.41
2018-01-23T02:33:13.456Z,101707.63
2018-01-23T02:33:37.574Z,101704.09
2018-01-23T02:34:01.337Z,101700.12
2018-01-23T02:34:24.831Z,101701.91
2018-01-23T02:34:48.574Z,101701.02
2018-01-23T02:35:12.333Z,101700.16
2018-01-23T02:35:36.372Z,101698.83
2018-01-23T02:36:00.399Z,101702.41
2018-01-23T02:36:24.422Z,101698.90
2018-01-23T02:36:48.195Z,101701.12
2018-01-23T02:37:11.636Z,101703.33
2018-01-23T02:37:35.386Z,101698.97
2018-01-23T02:37:59.120Z,101695.90
2018-01-23T02:38:22.567Z,101702.08
2018-01-23T02:38:46.139Z,101703.88
2018-01-23T02:39:10.173Z,101699.50
2018-01-23T02:39:34.216Z,101704.37
2018-01-23T02:39:57.961Z,101703.51
2018-01-23T02:40:21.482Z,101703.55
2018-01-23T02:40:45.213Z,101704.01
2018-01-23T02:41:08.984Z,101702.72
2018-01-23T02:41:33.051Z,101700.58
2018-01-23T02:41:57.075Z,101708.55
2018-01-23T02:42:20.841Z,101704.15
2018-01-23T02:42:44.291Z,101706.87
2018-01-23T02:43:08.017Z,101702.54
2018-01-23T02:43:31.768Z,101708.30
2018-01-23T02:43:55.529Z,101704.83
2018-01-23T02:44:19.286Z,101711.01
2018-01-23T02:44:43.064Z,101704.86
2018-01-23T02:45:06.834Z,101707.58
2018-01-23T02:45:30.861Z,101708.47
2018-01-23T02:45:54.619Z,101704.53
2018-01-23T02:46:18.352Z,101712.47
2018-01-23T02:46:42.096Z,101716.05
2018-01-23T02:47:05.854Z,101707.22
2018-01-23T02:47:29.604Z,101709.86
2018-01-23T02:47:53.614Z,101710.75
2018-01-23T02:48:17.655Z,101705.03
2018-01-23T02:48:41.691Z,101708.58
2018-01-23T02:49:05.517Z,101702.46
2018-01-23T02:49:29.460Z,101704.17
2018-01-23T02:49:52.912Z,101706.42
2018-01-23T02:50:16.664Z,101702.46
2018-01-23T02:50:40.404Z,101702.46
2018-01-23T02:51:04.430Z,101705.50
2018-01-23T02:51:28.438Z,101702.86
2018-01-23T02:51:52.494Z,101709.43
2018-01-23T02:52:16.260Z,101704.67
2018-01-23T02:52:39.991Z,101700.64
2018-01-23T02:53:03.716Z,101704.17
2018-01-23T02:53:27.443Z,101699.39
2018-01-23T02:53:51.222Z,101704.67
2018-01-23T02:54:15.267Z,101708.22
2018-01-23T02:54:39.312Z,101706.03
2018-01-23T02:55:03.350Z,101710.43
2018-01-23T02:55:27.105Z,101705.17
2018-01-23T02:55:50.554Z,101711.36
2018-01-23T02:56:14.291Z,101710.96
2018-01-23T02:56:38.037Z,101713.61
2018-01-23T02:57:01.492Z,101712.35
2018-01-23T02:57:25.263Z,101712.35
2018-01-23T02:57:49.034Z,101715.46
2018-01-23T02:58:13.055Z,101710.20
2018-01-23T02:58:37.068Z,101713.75
2018-01-23T02:59:01.078Z,101716.82
2018-01-23T02:59:24.554Z,101715.10
2018-01-23T02:59:48.297Z,101712.03
2018-01-23T03:00:12.100Z,101713.35
2018-01-23T03:00:35.841Z,101710.78
2018-01-23T03:00:59.300Z,101716.06
2018-01-23T03:01:23.259Z,101715.64
2018-01-23T03:01:46.996Z,101712.14
2018-01-23T03:02:10.740Z,101715.28
2018-01-23T03:02:34.223Z,101709.99
2018-01-23T03:02:57.956Z,101710.45
2018-01-23T03:03:21.698Z,101714.42
2018-01-23T03:03:45.773Z,101718.45
2018-01-23T03:04:09.810Z,101718.92
2018-01-23T03:04:33.572Z,101716.73
2018-01-23T03:04:57.017Z,101721.17
2018-01-23T03:05:20.748Z,101716.34
2018-01-23T03:05:44.508Z,101719.45
2018-01-23T03:06:07.598Z,101720.84
2018-01-23T03:06:31.618Z,101724.41
2018-01-23T03:06:55.202Z,101730.59
2018-01-23T03:07:18.978Z,101728.41
2018-01-23T03:07:42.767Z,101728.87
2018-01-23T03:08:06.500Z,101728.52
2018-01-23T03:08:30.531Z,101730.30
2018-01-23T03:08:54.279Z,101728.52
2018-01-23T03:09:17.761Z,101726.80
2018-01-23T03:09:41.535Z,101724.16
2018-01-23T03:10:04.950Z,101725.48
2018-01-23T03:10:28.801Z,101726.38
2018-01-23T03:10:52.527Z,101732.55
2018-01-23T03:11:16.279Z,101729.94
2018-01-23T03:11:40.335Z,101728.69
2018-01-23T03:12:04.358Z,101723.86
2018-01-23T03:12:28.109Z,101732.22
2018-01-23T03:12:51.681Z,101726.97
2018-01-23T03:13:15.424Z,101730.51
2018-01-23T03:13:39.162Z,101725.68
2018-01-23T03:14:03.191Z,101728.79
2018-01-23T03:14:27.245Z,101729.75
2018-01-23T03:14:51.193Z,101725.36
2018-01-23T03:15:14.675Z,101731.07
2018-01-23T03:15:38.427Z,101733.28
2018-01-23T03:16:02.167Z,101732.39
2018-01-23T03:16:25.915Z,101730.22
2018-01-23T03:16:49.356Z,101735.93
2018-01-23T03:17:13.088Z,101731.11
2018-01-23T03:17:36.843Z,101734.17
2018-01-23T03:18:00.291Z,101738.57
2018-01-23T03:18:24.020Z,101736.75
2018-01-23T03:18:47.764Z,101736.29
2018-01-23T03:19:11.334Z,101740.25
2018-01-23T03:19:35.082Z,101738.47
2018-01-23T03:19:58.842Z,101732.72
2018-01-23T03:20:22.903Z,101740.66
2018-01-23T03:20:46.686Z,101734.51
2018-01-23T03:21:10.136Z,101741.94
2018-01-23T03:21:33.859Z,101739.72
2018-01-23T03:21:56.899Z,101741.51
2018-01-23T03:22:20.656Z,101737.55
2018-01-23T03:22:44.687Z,101745.01
2018-01-23T03:23:08.296Z,101740.16
2018-01-23T03:23:32.055Z,101738.83
2018-01-23T03:23:55.791Z,101740.58
2018-01-23T03:24:19.548Z,101742.30
2018-01-23T03:24:43.581Z,101742.73
2018-01-23T03:25:07.621Z,101739.63
2018-01-23T03:25:31.631Z,101743.13
2018-01-23T03:25:55.111Z,101744.41
2018-01-23T03:26:18.839Z,101743.09
2018-01-23T03:26:42.665Z,101741.77
2018-01-23T03:27:06.412Z,101744.81
2018-01-23T03:27:29.856Z,101739.91
2018-01-23T03:27:53.588Z,101743.88
2018-01-23T03:28:17.348Z,101740.31
2018-01-23T03:28:40.789Z,101745.56
2018-01-23T03:29:04.550Z,101745.99
2018-01-23T03:29:28.289Z,101748.60
2018-01-23T03:29:51.731Z,101743.67
2018-01-23T03:30:15.487Z,101744.10
2018-01-23T03:30:39.225Z,101752.00
2018-01-23T03:31:02.668Z,101748.03
2018-01-23T03:31:26.420Z,101747.53
2018-01-23T03:31:50.183Z,101751.00
2018-01-23T03:32:14.203Z,101746.58
2018-01-23T03:32:38.237Z,101750.08
2018-01-23T03:33:02.252Z,101753.58
2018-01-23T03:33:25.693Z,101749.15
2018-01-23T03:33:49.456Z,101749.15
2018-01-23T03:34:13.220Z,101752.66
2018-01-23T03:34:37.026Z,101743.83
2018-01-23T03:35:00.651Z,101747.27
2018-01-23T03:35:24.422Z,101750.77
2018-01-23T03:35:48.165Z,101750.77
2018-01-23T03:36:11.903Z,101748.55
2018-01-23T03:36:35.340Z,101752.05
2018-01-23T03:36:59.083Z,101750.30
2018-01-23T03:37:22.861Z,101753.38
2018-01-23T03:37:46.313Z,101752.05
2018-01-23T03:38:10.107Z,101756.02
2018-01-23T03:38:33.851Z,101752.05
2018-01-23T03:38:57.294Z,101757.30
2018-01-23T03:39:21.015Z,101754.70
2018-01-23T03:39:44.756Z,101752.95
2018-01-23T03:40:08.219Z,101754.70
2018-01-23T03:40:31.631Z,101753.38
2018-01-23T03:40:55.383Z,101752.05
2018-01-23T03:41:19.152Z,101749.41
2018-01-23T03:41:42.918Z,101749.84
2018-01-23T03:42:06.673Z,101755.13
2018-01-23T03:42:30.123Z,101748.13
2018-01-23T03:42:53.899Z,101757.77
2018-01-23T03:43:17.655Z,101750.73
2018-01-23T03:43:41.674Z,101752.91
2018-01-23T03:44:05.743Z,101752.05
2018-01-23T03:44:29.199Z,101754.23
2018-01-23T03:44:52.933Z,101755.55
2018-01-23T03:45:16.668Z,101752.95
2018-01-23T03:45:40.701Z,101755.13
2018-01-23T03:46:04.452Z,101760.84
2018-01-23T03:46:27.915Z,101760.78
2018-01-23T03:46:51.647Z,101757.34
2018-01-23T03:47:15.388Z,101759.52
2018-01-23T03:47:39.129Z,101762.59
2018-01-23T03:48:02.863Z,101754.16
2018-01-23T03:48:26.587Z,101761.27
2018-01-23T03:48:50.343Z,101763.42
2018-01-23T03:49:13.790Z,101757.73
2018-01-23T03:49:37.519Z,101757.73
2018-01-23T03:50:01.267Z,101760.78
2018-01-23T03:50:24.724Z,101761.27
2018-01-23T03:50:48.484Z,101759.42
2018-01-23T03:51:12.226Z,101760.73
2018-01-23T03:51:35.686Z,101763.81
2018-01-23T03:51:59.421Z,101764.70
2018-01-23T03:52:23.156Z,101765.14
2018-01-23T03:52:46.892Z,101763.81
2018-01-23T03:53:10.646Z,101762.92
2018-01-23T03:53:34.387Z,101767.75
2018-01-23T03:53:58.128Z,101763.81
2018-01-23T03:54:22.155Z,101765.96
2018-01-23T03:54:46.167Z,101773.03
2018-01-23T03:55:10.207Z,101760.24
2018-01-23T03:55:33.664Z,101763.31
2018-01-23T03:55:57.422Z,101765.96
2018-01-23T03:56:21.166Z,101765.06
2018-01-23T03:56:44.916Z,101764.60
2018-01-23T03:57:08.633Z,101758.45
2018-01-23T03:57:32.403Z,101762.85
2018-01-23T03:57:56.155Z,101762.85
2018-01-23T03:58:19.889Z,101766.82
2018-01-23T03:58:43.340Z,101770.78
2018-01-23T03:59:07.087Z,101766.39
2018-01-23T03:59:30.832Z,101765.06
2018-01-23T03:59:54.281Z,101763.31
2018-01-23T04:00:18.031Z,101760.67
2018-01-23T04:00:41.778Z,101763.28
2018-01-23T04:01:05.795Z,101765.96
2018-01-23T04:01:29.815Z,101763.78
2018-01-23T04:01:53.835Z,101765.10
2018-01-23T04:02:17.655Z,101765.96
2018-01-23T04:02:41.161Z,101768.57
2018-01-23T04:03:04.885Z,101762.42
2018-01-23T04:03:28.628Z,101763.31
2018-01-23T04:03:52.079Z,101765.96
2018-01-23T04:04:15.864Z,101769.03
2018-01-23T04:04:39.600Z,101766.39
2018-01-23T04:05:03.625Z,101764.64
2018-01-23T04:05:27.348Z,101774.75
2018-01-23T04:05:51.080Z,101769.03
2018-01-23T04:06:14.823Z,101770.78
2018-01-23T04:06:38.552Z,101769.47
2018-01-23T04:07:02.055Z,101769.50
2018-01-23T04:07:25.788Z,101768.14
2018-01-23T04:07:49.570Z,101772.93
2018-01-23T04:08:13.344Z,101773.36
2018-01-23T04:08:37.387Z,101769.39
2018-01-23T04:09:01.224Z,101770.25
2018-01-23T04:09:24.672Z,101768.08
2018-01-23T04:09:48.423Z,101773.79
2018-01-23T04:10:12.176Z,101772.90
2018-01-23T04:10:35.621Z,101771.14
2018-01-23T04:10:59.372Z,101770.25
2018-01-23T04:11:23.121Z,101766.72
2018-01-23T04:11:46.572Z,101769.36
2018-01-23T04:12:10.331Z,101769.79
2018-01-23T04:12:34.091Z,101771.11
2018-01-23T04:12:58.151Z,101772.44
2018-01-23T04:13:22.163Z,101772.86
2018-01-23T04:13:45.608Z,101768.89
2018-01-23T04:14:09.354Z,101772.86
2018-01-23T04:14:33.125Z,101768.89
2018-01-23T04:14:56.868Z,101774.19
2018-01-23T04:15:20.311Z,101775.05
2018-01-23T04:15:44.045Z,101773.69
2018-01-23T04:16:07.840Z,101777.66
2018-01-23T04:16:31.863Z,101780.30
2018-01-23T04:16:55.895Z,101773.26
2018-01-23T04:17:19.911Z,101771.94
2018-01-23T04:17:43.406Z,101771.51
2018-01-23T04:18:07.147Z,101775.91
2018-01-23T04:18:30.875Z,101772.83
2018-01-23T04:18:54.420Z,101779.80
2018-01-23T04:19:18.156Z,101775.91
2018-01-23T04:19:42.116Z,101770.19
2018-01-23T04:20:05.845Z,101771.51
2018-01-23T04:20:29.591Z,101771.08
2018-01-23T04:20:53.614Z,101773.30
2018-01-23T04:21:17.634Z,101776.37
2018-01-23T04:21:41.639Z,101775.94
2018-01-23T04:22:05.113Z,101772.90
2018-01-23T04:22:28.841Z,101776.83
2018-01-23T04:22:52.576Z,101778.58
2018-01-23T04:23:16.366Z,101773.30
2018-01-23T04:23:39.816Z,101775.51
2018-01-23T04:24:03.601Z,101771.51
2018-01-23T04:24:27.379Z,101773.72
2018-01-23T04:24:51.403Z,101765.36
2018-01-23T04:25:15.453Z,101774.19
2018-01-23T04:25:39.192Z,101771.97
2018-01-23T04:26:02.920Z,101775.51
2018-01-23T04:26:26.649Z,101771.97
2018-01-23T04:26:50.389Z,101771.94
2018-01-23T04:27:14.137Z,101774.12
2018-01-23T04:27:37.576Z,101773.69
2018-01-23T04:28:01.316Z,101778.08
2018-01-23T04:28:25.083Z,101778.97
2018-01-23T04:28:48.532Z,101782.52
2018-01-23T04:29:12.264Z,101784.27
2018-01-23T04:29:36.029Z,101780.77
2018-01-23T04:29:59.490Z,101782.52
2018-01-23T04:30:23.232Z,101778.97
2018-01-23T04:30:49.903Z,101780.30
2018-01-23T04:31:13.600Z,101776.80